createdAt,value
2024-03-02T00:00:57.503Z,82.70
2024-03-02T00:06:33.320Z,83.00
2024-03-02T00:12:09.220Z,83.20
2024-03-02T00:17:46.414Z,83.10
2024-03-02T00:23:24.234Z,82.80
2024-03-02T00:29:03.552Z,83.00
2024-03-02T00:34:40.266Z,83.10
2024-03-02T00:40:17.662Z,82.90
2024-03-02T00:45:53.425Z,83.10
2024-03-02T00:51:32.444Z,82.80
2024-03-02T00:57:08.396Z,82.70
2024-03-02T01:02:44.322Z,82.80
2024-03-02T01:08:21.394Z,83.30
2024-03-02T01:13:57.323Z,83.90
2024-03-02T01:19:33.386Z,84.00
2024-03-02T01:25:10.351Z,84.10
2024-03-02T01:30:46.428Z,84.20
2024-03-02T01:36:22.622Z,84.20
2024-03-02T01:41:59.594Z,84.30
2024-03-02T01:47:35.577Z,83.80
2024-03-02T01:53:11.513Z,83.90
2024-03-02T01:58:48.697Z,83.90
2024-03-02T02:04:24.519Z,83.70
2024-03-02T02:10:00.596Z,84.30
2024-03-02T02:15:38.532Z,84.50
2024-03-02T02:21:14.512Z,84.80
2024-03-02T02:26:51.551Z,84.70
2024-03-02T02:32:27.558Z,84.60
2024-03-02T02:38:04.647Z,84.30
2024-03-02T02:43:41.528Z,84.20
2024-03-02T02:49:17.591Z,84.30
2024-03-02T02:54:53.588Z,83.80
2024-03-02T03:00:30.665Z,83.80
2024-03-02T03:06:06.619Z,84.20
2024-03-02T03:11:42.654Z,84.10
2024-03-02T03:17:19.653Z,84.00
2024-03-02T03:22:55.607Z,84.10
2024-03-02T03:28:31.630Z,83.80
2024-03-02T03:34:08.703Z,84.20
2024-03-02T03:39:44.679Z,84.20
2024-03-02T03:45:26.759Z,84.30
2024-03-02T03:51:03.679Z,84.00
2024-03-02T03:56:39.758Z,83.10
2024-03-02T04:02:15.742Z,83.50
2024-03-02T04:07:52.851Z,83.80
2024-03-02T04:13:28.770Z,83.60
2024-03-02T04:19:04.739Z,84.00
2024-03-02T04:24:41.787Z,83.90
2024-03-02T04:30:18.831Z,83.70
2024-03-02T04:35:54.796Z,83.50
2024-03-02T04:41:32.756Z,83.50
2024-03-02T04:47:08.819Z,84.00
2024-03-02T04:52:44.880Z,84.40
2024-03-02T04:58:21.798Z,84.40
2024-03-02T05:03:57.919Z,84.40
2024-03-02T05:09:33.883Z,84.70
2024-03-02T05:15:11.917Z,84.70
2024-03-02T05:20:47.896Z,84.60
2024-03-02T05:26:23.829Z,84.50
2024-03-02T05:32:00.892Z,84.70
2024-03-02T05:37:36.861Z,84.80
2024-03-02T05:43:12.988Z,84.60
2024-03-02T05:48:49.952Z,84.80
2024-03-02T05:54:25.959Z,85.40
2024-03-02T06:00:01.951Z,85.30
2024-03-02T06:05:43.080Z,85.70
2024-03-02T06:11:18.957Z,85.20
2024-03-02T06:16:54.945Z,85.00
2024-03-02T06:22:32.038Z,85.20
2024-03-02T06:28:08.101Z,85.00
2024-03-02T06:33:44.075Z,84.80
2024-03-02T06:39:21.067Z,84.70
2024-03-02T06:44:56.984Z,84.30
2024-03-02T06:50:33.002Z,84.20
2024-03-02T06:56:11.088Z,84.10
2024-03-02T07:01:47.061Z,83.90
2024-03-02T07:07:23.044Z,84.10
2024-03-02T07:13:00.319Z,84.20
2024-03-02T07:18:36.125Z,84.70
2024-03-02T07:24:12.066Z,84.70
2024-03-02T07:29:49.085Z,84.30
2024-03-02T07:35:25.171Z,84.10
2024-03-02T07:41:01.131Z,84.50
2024-03-02T07:46:38.129Z,84.90
2024-03-02T07:52:14.147Z,84.80
2024-03-02T07:57:50.164Z,84.50
2024-03-02T08:03:27.205Z,83.50
2024-03-02T08:09:04.194Z,83.50
2024-03-02T08:14:40.238Z,84.20
2024-03-02T08:20:18.197Z,84.10
2024-03-02T08:25:54.202Z,83.60
2024-03-02T08:31:30.319Z,83.60
2024-03-02T08:37:08.275Z,83.60
2024-03-02T08:42:44.282Z,83.50
2024-03-02T08:48:20.493Z,83.10
2024-03-02T08:53:57.267Z,83.30
2024-03-02T08:59:33.322Z,82.80
2024-03-02T09:05:09.380Z,82.50
2024-03-02T09:10:46.354Z,81.40
2024-03-02T09:16:22.363Z,81.90
2024-03-02T09:21:58.360Z,82.20
2024-03-02T09:27:35.490Z,81.70
2024-03-02T09:38:51.349Z,81.10
2024-03-02T09:44:28.372Z,80.90
2024-03-02T09:50:04.455Z,80.70
2024-03-02T09:55:40.534Z,80.70
2024-03-02T10:01:18.487Z,80.40
2024-03-02T10:06:54.513Z,80.30
2024-03-02T10:12:30.516Z,80.00
2024-03-02T10:18:07.493Z,80.30
2024-03-02T10:23:43.514Z,79.50
2024-03-02T10:29:19.455Z,79.60
2024-03-02T10:34:58.493Z,79.20
2024-03-02T10:40:34.697Z,79.60
2024-03-02T10:46:10.640Z,79.00
2024-03-02T10:51:47.599Z,79.40
2024-03-02T10:57:28.804Z,79.10
2024-03-02T11:03:06.652Z,78.50
2024-03-02T11:08:47.563Z,77.90
2024-03-02T11:14:27.653Z,77.70
2024-03-02T11:20:03.637Z,77.90
2024-03-02T11:25:40.653Z,77.30
2024-03-02T11:31:16.786Z,77.20
2024-03-02T11:36:52.656Z,77.90
2024-03-02T11:42:29.692Z,77.50
2024-03-02T11:48:05.641Z,77.60
2024-03-02T11:53:42.644Z,77.90
2024-03-02T11:59:20.658Z,78.10
2024-03-02T12:04:57.836Z,77.90
2024-03-02T12:10:33.653Z,77.30
2024-03-02T12:16:11.972Z,77.30
2024-03-02T12:21:47.930Z,77.60
2024-03-02T12:27:24.896Z,76.80
2024-03-02T12:33:02.787Z,76.80
2024-03-02T12:38:38.735Z,76.50
2024-03-02T12:44:14.950Z,77.60
2024-03-02T12:49:51.905Z,77.40
2024-03-02T12:55:28.744Z,77.10
2024-03-02T13:01:13.919Z,76.60
2024-03-02T13:06:50.773Z,77.10
2024-03-02T13:12:28.127Z,76.80
2024-03-02T13:18:06.874Z,76.30
2024-03-02T13:23:44.861Z,76.10
2024-03-02T13:29:20.870Z,76.50
2024-03-02T13:34:56.846Z,77.00
2024-03-02T13:40:33.960Z,77.10
2024-03-02T13:46:09.886Z,77.10
2024-03-02T13:51:45.884Z,76.70
2024-03-02T13:57:25.423Z,77.10
2024-03-02T14:03:02.947Z,76.60
2024-03-02T14:08:38.933Z,77.00
2024-03-02T14:14:15.926Z,76.90
2024-03-02T14:19:58.046Z,76.80
2024-03-02T14:25:33.913Z,77.00
2024-03-02T14:31:11.177Z,77.50
2024-03-02T14:36:47.058Z,77.50
2024-03-02T14:42:23.186Z,77.30
2024-03-02T14:48:00.077Z,77.30
2024-03-02T14:53:36.052Z,77.40
2024-03-02T14:59:12.014Z,78.10
2024-03-02T15:04:49.077Z,78.30
2024-03-02T15:10:25.089Z,78.80
2024-03-02T15:16:01.279Z,78.60
2024-03-02T15:21:38.140Z,78.70
2024-03-02T15:27:14.152Z,78.40
2024-03-02T15:32:50.128Z,78.50
2024-03-02T15:38:33.379Z,78.90
2024-03-02T15:44:11.421Z,79.40
2024-03-02T15:49:47.493Z,79.80
2024-03-02T15:55:24.180Z,79.80
2024-03-02T16:01:00.257Z,79.80
2024-03-02T16:06:36.193Z,79.90
2024-03-02T16:12:14.174Z,79.80
2024-03-02T16:17:50.310Z,80.10
2024-03-02T16:23:26.249Z,80.40
2024-03-02T16:29:03.189Z,80.90
2024-03-02T16:34:39.472Z,80.90
2024-03-02T16:40:16.223Z,80.80
2024-03-02T16:51:29.278Z,80.80
2024-03-02T16:57:05.248Z,80.90
2024-03-02T17:02:42.226Z,81.30
2024-03-02T17:08:19.313Z,82.00
2024-03-02T17:13:55.310Z,81.60
2024-03-02T17:19:32.291Z,81.80
2024-03-02T17:25:08.351Z,81.90
2024-03-02T17:30:58.487Z,81.80
2024-03-02T17:36:35.358Z,82.30
2024-03-02T17:42:11.603Z,82.60
2024-03-02T17:47:47.409Z,82.60
2024-03-02T17:53:25.683Z,82.60
2024-03-02T17:59:01.366Z,82.70
2024-03-02T18:04:37.549Z,82.80
2024-03-02T18:10:15.459Z,82.90
2024-03-02T18:15:51.873Z,82.70
2024-03-02T18:21:27.761Z,82.50
2024-03-02T18:27:04.569Z,82.60
2024-03-02T18:32:40.476Z,82.50
2024-03-02T18:38:16.503Z,82.70
2024-03-02T18:43:57.464Z,83.10
2024-03-02T18:49:33.540Z,83.30
2024-03-02T18:55:09.865Z,82.90
2024-03-02T19:00:46.592Z,83.60
2024-03-02T19:06:22.517Z,83.00
2024-03-02T19:11:58.549Z,82.70
2024-03-02T19:17:35.551Z,82.50
2024-03-02T19:23:14.859Z,82.60
2024-03-02T19:28:54.565Z,82.80
2024-03-02T19:34:31.614Z,82.80
2024-03-02T19:40:07.674Z,82.90
2024-03-02T19:45:43.662Z,82.90
2024-03-02T19:51:20.611Z,82.80
2024-03-02T19:56:56.889Z,82.90
2024-03-02T20:02:32.670Z,83.10
2024-03-02T20:08:09.695Z,83.20
2024-03-02T20:13:45.652Z,83.50
2024-03-02T20:19:21.643Z,84.30
2024-03-02T20:24:58.777Z,84.10
2024-03-02T20:30:34.927Z,83.80
2024-03-02T20:36:10.699Z,84.20
2024-03-02T20:41:47.762Z,84.10
2024-03-02T20:47:24.120Z,84.00
2024-03-02T20:52:59.740Z,83.90
2024-03-02T20:58:36.874Z,83.70
2024-03-02T21:04:12.803Z,83.70
2024-03-02T21:09:48.789Z,83.80
2024-03-02T21:15:26.749Z,83.90
2024-03-02T21:21:02.845Z,84.30
2024-03-02T21:26:38.949Z,84.10
2024-03-02T21:32:15.814Z,83.90
2024-03-02T21:37:51.770Z,83.90
2024-03-02T21:43:27.888Z,84.20
2024-03-02T21:49:04.884Z,84.50
2024-03-02T21:54:40.913Z,84.80
2024-03-02T22:00:16.884Z,84.70
2024-03-02T22:05:53.978Z,84.40
2024-03-02T22:11:29.984Z,84.00
2024-03-02T22:17:05.889Z,83.80
2024-03-02T22:22:43.053Z,83.40
2024-03-02T22:28:18.976Z,83.70
2024-03-02T22:33:54.906Z,83.80
2024-03-02T22:39:31.989Z,83.40
2024-03-02T22:51:30.026Z,83.80
2024-03-02T22:57:07.027Z,83.80
2024-03-02T23:02:43.003Z,83.80
2024-03-02T23:08:18.974Z,83.50
2024-03-02T23:13:55.972Z,83.80
2024-03-02T23:19:32.099Z,83.50
2024-03-02T23:25:08.170Z,83.20
2024-03-02T23:30:45.057Z,83.20
2024-03-02T23:36:21.085Z,83.10
2024-03-02T23:41:57.065Z,83.30
2024-03-02T23:54:37.158Z,82.60
